createdAt,value
2022-09-06T00:00:18.657Z,74.61
2022-09-06T00:02:47.397Z,74.09
2022-09-06T00:05:15.518Z,74.15
2022-09-06T00:07:44.947Z,73.67
2022-09-06T00:10:13.589Z,73.96
2022-09-06T00:12:41.749Z,73.25
2022-09-06T00:15:10.745Z,72.84
2022-09-06T00:17:38.758Z,73.03
2022-09-06T00:20:09.329Z,72.66
2022-09-06T00:22:37.543Z,73.07
2022-09-06T00:25:08.136Z,73.04
2022-09-06T00:27:36.691Z,73.15
2022-09-06T00:30:05.746Z,73.29
2022-09-06T00:32:34.045Z,73.69
2022-09-06T00:35:02.074Z,73.85
2022-09-06T00:37:30.205Z,74.10
2022-09-06T00:39:58.277Z,74.89
2022-09-06T00:42:27.715Z,75.45
2022-09-06T00:44:55.883Z,75.67
2022-09-06T00:47:24.088Z,75.79
2022-09-06T00:49:54.601Z,75.97
2022-09-06T00:52:24.219Z,76.33
2022-09-06T00:54:52.776Z,76.13
2022-09-06T00:57:21.280Z,76.04
2022-09-06T00:59:51.662Z,75.71
2022-09-06T01:02:20.249Z,75.72
2022-09-06T01:04:51.230Z,75.56
2022-09-06T01:07:28.985Z,75.68
2022-09-06T01:10:14.801Z,75.99
2022-09-06T01:12:51.326Z,76.03
2022-09-06T01:15:32.365Z,76.48
2022-09-06T01:18:14.230Z,76.07
2022-09-06T01:21:15.333Z,76.45
2022-09-06T01:24:29.179Z,77.09
2022-09-06T01:27:35.263Z,77.71
2022-09-06T01:30:10.288Z,77.58
2022-09-06T01:32:48.192Z,78.16
2022-09-06T01:35:23.050Z,78.20
2022-09-06T01:37:51.346Z,77.74
2022-09-06T01:40:19.571Z,78.08
2022-09-06T01:42:51.580Z,77.62
2022-09-06T01:45:24.475Z,77.59
2022-09-06T01:48:10.694Z,77.32
2022-09-06T01:50:51.070Z,77.45
2022-09-06T01:53:34.545Z,77.42
2022-09-06T01:56:10.084Z,77.05
2022-09-06T01:58:56.755Z,77.36
2022-09-06T02:01:31.553Z,78.30
2022-09-06T02:04:04.651Z,78.26
2022-09-06T02:06:36.867Z,78.01
2022-09-06T02:09:09.009Z,77.30
2022-09-06T02:11:41.806Z,77.95
2022-09-06T02:14:14.572Z,77.59
2022-09-06T02:16:46.810Z,77.24
2022-09-06T02:19:19.306Z,76.91
2022-09-06T02:21:48.726Z,76.52
2022-09-06T02:24:21.146Z,76.41
2022-09-06T02:26:49.457Z,76.52
2022-09-06T02:29:18.642Z,76.50
2022-09-06T02:31:51.921Z,76.59
2022-09-06T02:34:21.261Z,76.89
2022-09-06T02:36:49.616Z,77.58
2022-09-06T02:39:17.732Z,79.44
2022-09-06T02:41:47.971Z,79.13
2022-09-06T02:44:16.224Z,78.39
2022-09-06T02:46:44.247Z,77.64
2022-09-06T02:49:13.648Z,77.91
2022-09-06T02:51:41.876Z,77.63
2022-09-06T02:54:09.917Z,77.38
2022-09-06T02:56:38.193Z,77.05
2022-09-06T02:59:06.966Z,76.91
2022-09-06T03:01:35.319Z,76.83
2022-09-06T03:04:03.965Z,77.17
2022-09-06T03:06:33.608Z,77.38
2022-09-06T03:09:01.843Z,76.66
2022-09-06T03:11:29.859Z,76.54
2022-09-06T03:13:57.878Z,76.29
2022-09-06T03:16:26.005Z,76.77
2022-09-06T03:18:54.070Z,77.32
2022-09-06T03:21:22.097Z,77.86
2022-09-06T03:23:51.529Z,78.29
2022-09-06T03:26:19.639Z,79.43
2022-09-06T03:28:47.714Z,79.71
2022-09-06T03:31:15.743Z,79.53
2022-09-06T03:33:43.791Z,78.90
2022-09-06T03:36:11.875Z,78.28
2022-09-06T03:38:40.075Z,77.83
2022-09-06T03:41:09.446Z,77.48
2022-09-06T03:43:37.693Z,77.40
2022-09-06T03:46:05.890Z,77.00
2022-09-06T03:48:33.956Z,76.66
2022-09-06T03:51:02.260Z,76.43
2022-09-06T03:53:30.669Z,76.04
2022-09-06T03:55:59.723Z,76.11
2022-09-06T03:58:32.970Z,76.08
2022-09-06T04:01:02.828Z,76.34
2022-09-06T04:03:30.963Z,78.14
2022-09-06T04:05:58.985Z,78.94
2022-09-06T04:08:27.659Z,79.72
2022-09-06T04:10:56.401Z,79.76
2022-09-06T04:13:25.432Z,79.78
2022-09-06T04:15:55.173Z,79.01
2022-09-06T04:18:23.641Z,77.90
2022-09-06T04:20:53.310Z,77.46
2022-09-06T04:23:21.936Z,76.95
2022-09-06T04:25:51.411Z,76.81
2022-09-06T04:28:20.047Z,76.50
2022-09-06T04:30:55.146Z,76.29
2022-09-06T04:33:25.926Z,76.39
2022-09-06T04:35:54.904Z,76.48
2022-09-06T04:38:23.089Z,76.24
2022-09-06T04:40:51.273Z,76.17
2022-09-06T04:43:19.515Z,76.36
2022-09-06T04:45:47.675Z,76.35
2022-09-06T04:48:17.321Z,76.43
2022-09-06T04:50:45.391Z,76.33
2022-09-06T04:53:13.503Z,75.94
2022-09-06T04:55:41.631Z,75.91
2022-09-06T04:58:09.696Z,76.08
2022-09-06T05:00:38.947Z,76.15
2022-09-06T05:03:07.007Z,76.34
2022-09-06T05:05:36.488Z,76.03
2022-09-06T05:08:04.772Z,76.38
2022-09-06T05:10:32.772Z,77.22
2022-09-06T05:13:00.794Z,77.24
2022-09-06T05:15:28.835Z,77.34
2022-09-06T05:18:04.423Z,77.38
2022-09-06T05:20:32.671Z,76.56
2022-09-06T05:23:02.322Z,76.93
2022-09-06T05:25:31.181Z,77.05
2022-09-06T05:27:59.168Z,76.63
2022-09-06T05:30:27.176Z,76.44
2022-09-06T05:32:55.183Z,77.23
2022-09-06T05:35:23.249Z,77.32
2022-09-06T05:37:51.325Z,77.44
2022-09-06T05:40:20.735Z,76.83
2022-09-06T05:42:48.766Z,76.66
2022-09-06T05:45:17.181Z,77.18
2022-09-06T05:47:45.244Z,77.75
2022-09-06T05:50:13.587Z,77.56
2022-09-06T05:52:41.599Z,78.09
2022-09-06T05:55:10.413Z,79.08
2022-09-06T05:57:39.872Z,79.64
2022-09-06T06:00:12.088Z,79.75
2022-09-06T06:02:41.047Z,79.91
2022-09-06T06:05:09.772Z,80.69
2022-09-06T06:07:37.783Z,80.35
2022-09-06T06:10:06.723Z,80.32
2022-09-06T06:12:34.691Z,80.90
2022-09-06T06:15:05.766Z,82.20
2022-09-06T06:17:34.188Z,82.95
2022-09-06T06:20:02.260Z,84.84
2022-09-06T06:22:30.269Z,86.19
2022-09-06T06:24:58.336Z,85.07
2022-09-06T06:27:26.387Z,84.47
2022-09-06T06:29:54.388Z,84.12
2022-09-06T06:32:23.769Z,85.09
2022-09-06T06:34:51.768Z,85.07
2022-09-06T06:37:19.811Z,84.68
2022-09-06T06:39:47.984Z,85.00
2022-09-06T06:42:16.130Z,85.53
2022-09-06T06:44:53.556Z,85.59
2022-09-06T06:47:22.954Z,85.46
2022-09-06T06:49:51.041Z,85.41
2022-09-06T06:52:21.417Z,86.04
2022-09-06T06:54:50.170Z,87.01
2022-09-06T06:57:18.192Z,87.65
2022-09-06T06:59:46.256Z,87.47
2022-09-06T07:02:15.765Z,87.14
2022-09-06T07:04:45.338Z,87.76
2022-09-06T07:12:49.407Z,89.63
2022-09-06T07:15:17.508Z,89.64
2022-09-06T07:17:45.777Z,90.48
2022-09-06T07:20:16.063Z,94.63
2022-09-06T07:22:44.481Z,96.05
2022-09-06T07:25:16.588Z,95.39
2022-09-06T07:27:49.480Z,97.06
2022-09-06T07:30:19.610Z,96.83
2022-09-06T07:32:47.779Z,95.71
2022-09-06T07:35:17.480Z,94.78
2022-09-06T07:37:53.081Z,96.55
2022-09-06T07:40:21.119Z,96.39
2022-09-06T07:42:49.388Z,97.99
2022-09-06T07:45:17.761Z,97.38
2022-09-06T07:48:01.119Z,97.10
2022-09-06T07:50:48.430Z,96.91
2022-09-06T07:53:24.604Z,95.91
2022-09-06T07:55:57.282Z,95.97
2022-09-06T07:58:25.403Z,95.65
2022-09-06T08:00:53.454Z,95.49
2022-09-06T08:03:21.576Z,94.72
2022-09-06T08:06:09.988Z,94.16
2022-09-06T08:11:28.932Z,92.52
2022-09-06T08:13:58.161Z,93.29
2022-09-06T08:16:29.045Z,93.26
2022-09-06T08:18:58.573Z,93.39
2022-09-06T08:21:30.314Z,94.05
2022-09-06T08:24:00.508Z,94.90
2022-09-06T08:26:30.203Z,93.90
2022-09-06T08:29:00.262Z,93.92
2022-09-06T08:31:29.598Z,94.71
2022-09-06T08:33:58.275Z,94.79
2022-09-06T08:36:29.716Z,93.89
2022-09-06T08:38:57.995Z,93.21
2022-09-06T08:41:27.954Z,93.03
2022-09-06T08:46:55.453Z,92.75
2022-09-06T08:49:24.944Z,91.68
2022-09-06T08:52:14.453Z,91.71
2022-09-06T08:54:49.729Z,91.60
2022-09-06T08:57:40.117Z,91.22
2022-09-06T09:00:12.282Z,90.79
2022-09-06T09:02:45.343Z,90.42
2022-09-06T09:05:26.550Z,91.30
2022-09-06T09:08:07.415Z,90.84
2022-09-06T09:10:42.588Z,90.94
2022-09-06T09:13:19.904Z,88.63
2022-09-06T09:15:48.019Z,88.80
2022-09-06T09:18:21.841Z,89.92
2022-09-06T09:20:49.897Z,88.21
2022-09-06T09:23:19.279Z,86.25
2022-09-06T09:25:49.247Z,84.86
2022-09-06T09:28:20.359Z,85.12
2022-09-06T09:30:51.168Z,86.27
2022-09-06T09:33:23.846Z,86.95
2022-09-06T09:35:52.809Z,86.24
2022-09-06T09:38:25.779Z,87.25
2022-09-06T09:40:55.666Z,85.57
2022-09-06T09:43:25.795Z,85.07
2022-09-06T09:46:17.496Z,83.10
2022-09-06T09:49:01.202Z,82.50
2022-09-06T09:51:30.456Z,82.53
2022-09-06T09:54:01.704Z,82.17
2022-09-06T09:56:41.506Z,83.43
2022-09-06T09:59:21.983Z,81.63
2022-09-06T10:01:50.472Z,80.86
2022-09-06T10:07:14.275Z,81.07
2022-09-06T10:09:46.525Z,81.26
2022-09-06T10:12:20.150Z,81.93
2022-09-06T10:14:49.703Z,81.11
2022-09-06T10:17:29.011Z,79.59
2022-09-06T10:19:57.748Z,78.06
2022-09-06T10:22:30.601Z,76.06
2022-09-06T10:25:48.934Z,73.48
2022-09-06T10:28:41.856Z,74.30
2022-09-06T10:31:33.989Z,77.99
2022-09-06T10:34:31.867Z,70.94
2022-09-06T10:37:09.607Z,70.32
2022-09-06T10:39:49.493Z,70.64
2022-09-06T10:42:29.940Z,71.20
2022-09-06T10:45:25.399Z,70.28
2022-09-06T10:47:58.612Z,68.26
2022-09-06T10:50:34.874Z,68.97
2022-09-06T10:53:10.779Z,62.79
2022-09-06T10:55:41.289Z,62.23
2022-09-06T11:00:47.677Z,61.43
2022-09-06T11:06:18.326Z,62.17
2022-09-06T11:08:57.837Z,61.56
2022-09-06T11:11:35.530Z,61.56
2022-09-06T11:14:10.154Z,61.30
2022-09-06T11:16:44.925Z,63.29
2022-09-06T11:19:17.793Z,63.76
2022-09-06T11:22:24.889Z,66.48
2022-09-06T11:25:34.296Z,66.57
2022-09-06T11:28:05.141Z,66.37
2022-09-06T11:30:35.392Z,66.12
2022-09-06T11:33:11.474Z,65.49
2022-09-06T11:35:42.650Z,65.80
2022-09-06T11:38:22.722Z,66.78
2022-09-06T11:41:00.683Z,62.72
2022-09-06T11:43:47.634Z,61.03
2022-09-06T11:46:53.179Z,59.73
2022-09-06T11:49:32.371Z,60.75
2022-09-06T11:52:00.557Z,61.27
2022-09-06T11:54:44.909Z,60.30
2022-09-06T11:57:17.695Z,64.73
2022-09-06T11:59:57.386Z,65.65
2022-09-06T12:02:35.351Z,66.21
2022-09-06T12:05:30.247Z,66.69
2022-09-06T12:08:29.249Z,66.41
2022-09-06T12:11:00.908Z,66.41
2022-09-06T12:13:54.381Z,66.04
2022-09-06T12:16:23.247Z,65.64
2022-09-06T12:18:57.449Z,66.31
2022-09-06T12:21:52.460Z,66.68
2022-09-06T12:24:52.422Z,65.58
2022-09-06T12:27:22.408Z,66.13
2022-09-06T12:29:56.233Z,65.35
2022-09-06T12:32:27.900Z,65.26
2022-09-06T12:37:55.656Z,63.96
2022-09-06T12:40:26.572Z,65.23
2022-09-06T12:42:55.336Z,66.08
2022-09-06T12:45:27.378Z,65.27
2022-09-06T12:48:06.192Z,64.94
2022-09-06T12:50:34.243Z,65.11
2022-09-06T12:53:05.729Z,65.01
2022-09-06T12:55:36.323Z,64.46
2022-09-06T12:58:07.514Z,63.71
2022-09-06T13:00:37.985Z,63.44
2022-09-06T13:03:11.919Z,62.51
2022-09-06T13:05:41.598Z,62.33
2022-09-06T13:08:15.871Z,61.45
2022-09-06T13:10:46.278Z,60.35
2022-09-06T13:13:22.181Z,60.18
2022-09-06T13:15:50.610Z,56.90
2022-09-06T13:18:27.373Z,56.25
2022-09-06T13:21:00.701Z,52.31
2022-09-06T13:23:31.603Z,53.04
2022-09-06T13:25:59.700Z,52.35
2022-09-06T13:28:30.055Z,52.20
2022-09-06T13:31:08.149Z,52.10
2022-09-06T13:33:37.922Z,52.48
2022-09-06T13:36:20.767Z,51.48
2022-09-06T13:38:50.803Z,53.68
2022-09-06T13:41:38.907Z,50.92
2022-09-06T13:44:08.977Z,51.82
2022-09-06T13:46:37.309Z,52.31
2022-09-06T13:49:06.171Z,51.73
2022-09-06T13:51:35.241Z,52.00
2022-09-06T13:54:10.594Z,52.99
2022-09-06T13:56:39.315Z,50.72
2022-09-06T13:59:09.910Z,52.07
2022-09-06T14:01:39.413Z,52.16
2022-09-06T14:04:08.340Z,51.19
2022-09-06T14:06:37.237Z,51.16
2022-09-06T14:09:08.331Z,51.96
2022-09-06T14:11:37.200Z,51.86
2022-09-06T14:14:05.579Z,52.49
2022-09-06T14:16:34.465Z,53.40
2022-09-06T14:19:02.591Z,54.83
2022-09-06T14:21:30.660Z,55.57
2022-09-06T14:24:03.921Z,54.86
2022-09-06T14:26:34.861Z,54.92
2022-09-06T14:29:03.251Z,53.92
2022-09-06T14:31:32.670Z,53.26
2022-09-06T14:34:02.218Z,54.13
2022-09-06T14:36:31.873Z,54.49
2022-09-06T14:39:00.917Z,55.38
2022-09-06T14:41:29.102Z,54.04
2022-09-06T14:43:59.634Z,54.54
2022-09-06T14:46:29.892Z,56.97
2022-09-06T14:48:59.427Z,55.45
2022-09-06T14:51:27.485Z,55.06
2022-09-06T14:53:58.514Z,55.89
2022-09-06T14:56:27.181Z,56.89
2022-09-06T14:58:57.556Z,57.00
2022-09-06T15:01:32.927Z,56.87
2022-09-06T15:04:05.403Z,56.61
2022-09-06T15:06:36.795Z,58.12
2022-09-06T15:09:05.738Z,56.99
2022-09-06T15:11:36.326Z,56.90
2022-09-06T15:14:06.294Z,57.09
2022-09-06T15:16:36.554Z,56.09
2022-09-06T15:19:05.002Z,57.74
2022-09-06T15:21:33.511Z,57.76
2022-09-06T15:24:02.551Z,57.73
2022-09-06T15:26:31.501Z,58.61
2022-09-06T15:28:59.495Z,58.08
2022-09-06T15:31:27.639Z,58.48
2022-09-06T15:33:58.114Z,58.96
2022-09-06T15:36:26.217Z,59.89
2022-09-06T15:38:54.878Z,59.94
2022-09-06T15:41:25.334Z,60.31
2022-09-06T15:43:56.812Z,59.21
2022-09-06T15:46:43.496Z,59.55
2022-09-06T15:49:14.797Z,59.24
2022-09-06T15:51:43.308Z,60.38
2022-09-06T15:54:12.765Z,60.02
2022-09-06T15:56:40.323Z,60.29
2022-09-06T15:59:08.373Z,60.19
2022-09-06T16:01:38.597Z,60.66
2022-09-06T16:04:07.736Z,60.86
2022-09-06T16:06:39.702Z,61.25
2022-09-06T16:09:10.374Z,62.38
2022-09-06T16:11:38.807Z,62.69
2022-09-06T16:14:08.698Z,63.37
2022-09-06T16:16:37.033Z,63.47
2022-09-06T16:19:05.654Z,64.01
2022-09-06T16:21:35.811Z,64.85
2022-09-06T16:24:07.040Z,65.98
2022-09-06T16:26:37.171Z,64.55
2022-09-06T16:29:07.057Z,64.95
2022-09-06T16:31:39.706Z,66.02
2022-09-06T16:34:08.702Z,68.86
2022-09-06T16:36:36.953Z,73.81
2022-09-06T16:39:07.140Z,78.86
2022-09-06T16:41:40.473Z,82.52
2022-09-06T16:44:09.477Z,86.30
2022-09-06T16:46:40.188Z,87.68
2022-09-06T16:49:08.347Z,91.13
2022-09-06T16:51:36.905Z,90.93
2022-09-06T16:54:06.331Z,95.75
2022-09-06T16:56:36.008Z,100.00
2022-09-06T16:59:05.988Z,98.19
2022-09-06T17:01:34.695Z,90.14
2022-09-06T17:04:03.534Z,87.34
2022-09-06T17:06:33.072Z,88.63
2022-09-06T17:09:01.149Z,88.55
2022-09-06T17:11:30.890Z,89.50
2022-09-06T17:13:59.174Z,89.73
2022-09-06T17:16:44.786Z,92.56
2022-09-06T17:19:13.592Z,91.83
2022-09-06T17:21:41.943Z,92.81
2022-09-06T17:24:10.704Z,91.95
2022-09-06T17:26:41.115Z,91.37
2022-09-06T17:29:10.471Z,92.67
2022-09-06T17:31:38.996Z,93.37
2022-09-06T17:34:07.742Z,92.85
2022-09-06T17:36:36.532Z,92.07
2022-09-06T17:39:06.525Z,91.11
2022-09-06T17:41:38.748Z,91.41
2022-09-06T17:44:10.559Z,92.45
2022-09-06T17:46:47.562Z,92.01
2022-09-06T17:49:20.659Z,92.44
2022-09-06T17:51:49.380Z,91.82
2022-09-06T17:54:17.721Z,92.14
2022-09-06T17:56:45.856Z,91.93
2022-09-06T17:59:15.742Z,93.10
2022-09-06T18:01:46.374Z,93.22
2022-09-06T18:04:15.289Z,93.70
2022-09-06T18:06:46.530Z,93.17
2022-09-06T18:09:17.501Z,93.61
2022-09-06T18:11:47.157Z,93.04
2022-09-06T18:14:20.856Z,92.94
2022-09-06T18:16:49.498Z,94.31
2022-09-06T18:19:18.777Z,93.64
2022-09-06T18:21:47.571Z,93.18
2022-09-06T18:24:16.365Z,93.44
2022-09-06T18:26:44.777Z,94.13
2022-09-06T18:29:15.046Z,94.48
2022-09-06T18:31:45.891Z,94.39
2022-09-06T18:34:14.095Z,94.45
2022-09-06T18:36:42.283Z,94.21
2022-09-06T18:39:11.395Z,94.14
2022-09-06T18:41:57.007Z,94.02
2022-09-06T18:44:25.632Z,93.96
2022-09-06T18:46:56.953Z,94.39
2022-09-06T18:49:25.133Z,93.80
2022-09-06T18:51:53.130Z,92.61
2022-09-06T18:54:21.752Z,93.25
2022-09-06T18:56:50.422Z,93.78
2022-09-06T18:59:19.092Z,93.96
2022-09-06T19:01:47.216Z,93.77
2022-09-06T19:04:16.796Z,94.18
2022-09-06T19:06:46.039Z,93.98
2022-09-06T19:09:16.463Z,94.34
2022-09-06T19:11:46.972Z,95.47
2022-09-06T19:14:15.050Z,95.04
2022-09-06T19:16:44.537Z,94.45
2022-09-06T19:19:13.508Z,94.92
2022-09-06T19:21:42.929Z,94.89
2022-09-06T19:24:14.598Z,95.21
2022-09-06T19:26:44.835Z,94.95
2022-09-06T19:29:15.409Z,96.30
2022-09-06T19:31:43.868Z,97.32
2022-09-06T19:34:13.566Z,99.53
2022-09-06T19:36:44.498Z,99.18
2022-09-06T19:39:15.420Z,98.20
2022-09-06T19:41:46.908Z,97.69
2022-09-06T19:44:16.751Z,97.48
2022-09-06T19:46:46.940Z,97.38
2022-09-06T19:49:19.188Z,97.58
2022-09-06T19:51:50.900Z,97.72
2022-09-06T19:54:19.483Z,100.00
2022-09-06T19:56:48.068Z,100.00
2022-09-06T19:59:17.748Z,100.00
2022-09-06T20:01:47.743Z,100.00
2022-09-06T20:04:16.463Z,99.57
2022-09-06T20:06:44.605Z,99.25
2022-09-06T20:09:15.914Z,100.00
2022-09-06T20:11:44.049Z,100.00
2022-09-06T20:14:13.205Z,100.00
2022-09-06T20:16:42.669Z,99.17
2022-09-06T20:19:12.025Z,98.89
2022-09-06T20:21:40.267Z,98.67
2022-09-06T20:24:08.475Z,98.20
2022-09-06T20:26:38.158Z,98.83
2022-09-06T20:29:06.948Z,99.32
2022-09-06T20:31:36.908Z,99.29
2022-09-06T20:34:06.446Z,99.53
2022-09-06T20:36:34.379Z,100.00
2022-09-06T20:39:03.042Z,100.00
2022-09-06T20:41:31.093Z,100.00
2022-09-06T20:44:01.246Z,100.00
2022-09-06T20:46:32.163Z,100.00
2022-09-06T20:49:04.382Z,100.00
2022-09-06T20:51:33.899Z,100.00
2022-09-06T20:54:02.677Z,100.00
2022-09-06T20:56:34.422Z,100.00
2022-09-06T20:59:06.315Z,100.00
2022-09-06T21:01:36.271Z,100.00
2022-09-06T21:04:06.475Z,100.00
2022-09-06T21:06:36.195Z,100.00
2022-09-06T21:09:05.848Z,100.00
2022-09-06T21:11:34.260Z,100.00
2022-09-06T21:14:04.115Z,100.00
2022-09-06T21:16:32.607Z,100.00
2022-09-06T21:19:02.579Z,100.00
2022-09-06T21:21:32.499Z,99.85
2022-09-06T21:24:01.407Z,99.73
2022-09-06T21:26:29.559Z,100.00
2022-09-06T21:28:57.623Z,100.00
2022-09-06T21:31:28.767Z,99.31
2022-09-06T21:33:58.595Z,99.82
2022-09-06T21:36:29.993Z,100.00
2022-09-06T21:39:00.192Z,100.00
2022-09-06T21:41:29.309Z,100.00
2022-09-06T21:43:59.639Z,100.00
2022-09-06T21:46:33.190Z,100.00
2022-09-06T21:49:03.552Z,100.00
2022-09-06T21:51:32.676Z,100.00
2022-09-06T21:54:03.571Z,100.00
2022-09-06T21:56:32.506Z,100.00
2022-09-06T21:59:00.807Z,100.00
2022-09-06T22:01:32.559Z,100.00
2022-09-06T22:04:01.244Z,100.00
2022-09-06T22:06:31.070Z,100.00
2022-09-06T22:09:00.474Z,100.00
2022-09-06T22:11:31.147Z,100.00
2022-09-06T22:14:00.097Z,100.00
2022-09-06T22:16:28.735Z,100.00
2022-09-06T22:18:58.472Z,100.00
2022-09-06T22:21:26.735Z,100.00
2022-09-06T22:23:56.424Z,100.00
2022-09-06T22:26:26.138Z,100.00
2022-09-06T22:28:55.425Z,100.00
2022-09-06T22:31:24.489Z,100.00
2022-09-06T22:33:52.854Z,100.00
2022-09-06T22:36:24.196Z,100.00
2022-09-06T22:38:56.385Z,100.00
2022-09-06T22:41:25.608Z,100.00
2022-09-06T22:43:53.767Z,100.00
2022-09-06T22:46:22.274Z,100.00
2022-09-06T22:48:50.491Z,100.00
2022-09-06T22:51:18.557Z,100.00
2022-09-06T22:53:47.978Z,100.00
2022-09-06T22:56:16.137Z,100.00
2022-09-06T22:58:44.128Z,100.00
2022-09-06T23:01:14.255Z,100.00
2022-09-06T23:03:42.930Z,100.00
2022-09-06T23:06:11.748Z,100.00
2022-09-06T23:08:41.360Z,100.00
2022-09-06T23:11:12.785Z,100.00
2022-09-06T23:13:44.047Z,100.00
2022-09-06T23:16:14.319Z,100.00
2022-09-06T23:18:42.671Z,100.00
2022-09-06T23:21:12.858Z,100.00
2022-09-06T23:23:42.750Z,100.00
2022-09-06T23:26:13.468Z,100.00
2022-09-06T23:28:41.729Z,100.00
2022-09-06T23:31:11.760Z,100.00
2022-09-06T23:33:40.453Z,100.00
2022-09-06T23:36:10.331Z,100.00
2022-09-06T23:38:41.227Z,100.00
2022-09-06T23:41:10.338Z,100.00
2022-09-06T23:43:40.461Z,100.00
2022-09-06T23:46:09.185Z,100.00
2022-09-06T23:48:37.556Z,100.00
2022-09-06T23:51:05.923Z,100.00
2022-09-06T23:53:34.327Z,100.00
2022-09-06T23:56:03.113Z,100.00
2022-09-06T23:58:31.470Z,100.00
